Time;durP1;ratioP1;P1;durP2;ratioP2;P2;SDS_P1;SDS_P2;PMS_P1;PMS_P2;Temp;Humidity;BMP_temperature;BMP_pressure;BME280_temperature;BME280_humidity;BME280_pressure;Samples;Min_cycle;Max_cycle;Signal;HPM_P1;HPM_P2
2021/10/15 00:02:03;;;;;;;13.40;7.60;;;;;;;12.17;87.21;100872.89;115781;1191;60074;-80
2021/10/15 00:04:30;;;;;;;11.30;6.20;;;;;;;12.17;87.00;100872.73;115772;1192;59678;-80
2021/10/15 00:06:56;;;;;;;12.40;5.80;;;;;;;12.18;86.54;100875.23;115757;1191;75841;-80
2021/10/15 00:09:23;;;;;;;11.80;7.50;;;;;;;12.20;86.45;100870.97;115799;1192;59284;-80
2021/10/15 00:11:50;;;;;;;8.50;6.00;;;;;;;12.21;86.04;100861.45;115692;1192;73597;-80
2021/10/15 00:14:16;;;;;;;13.10;6.70;;;;;;;12.22;85.85;100857.21;115743;1191;60389;-80
2021/10/15 00:16:43;;;;;;;11.10;6.70;;;;;;;12.22;85.85;100856.69;115798;1191;60121;-80
2021/10/15 00:19:10;;;;;;;10.30;6.00;;;;;;;12.23;85.77;100860.27;115718;1192;75459;-80
2021/10/15 00:21:36;;;;;;;7.20;4.50;;;;;;;12.23;85.66;100849.95;115795;1192;72039;-79
2021/10/15 00:24:03;;;;;;;10.40;6.20;;;;;;;12.23;86.10;100850.55;115746;1192;71530;-80
2021/10/15 00:26:30;;;;;;;10.50;4.70;;;;;;;12.22;85.72;100844.62;115740;1192;62201;-80
2021/10/15 00:28:56;;;;;;;7.40;5.60;;;;;;;12.21;85.62;100848.08;115765;1192;60577;-82
2021/10/15 00:31:26;;;;;;;8.00;5.80;;;;;;;12.22;85.54;100840.55;115784;1192;74609;-80
2021/10/15 00:33:52;;;;;;;10.80;5.20;;;;;;;12.21;85.53;100835.88;115754;1192;70976;-80
2021/10/15 00:36:19;;;;;;;7.10;4.30;;;;;;;12.21;85.06;100832.86;115771;1192;58989;-80
2021/10/15 00:38:45;;;;;;;8.00;4.60;;;;;;;12.23;84.67;100827.48;115608;1192;62969;-79
2021/10/15 00:41:12;;;;;;;8.40;5.20;;;;;;;12.26;84.28;100825.05;115720;1192;59010;-79
2021/10/15 00:44:05;;;;;;;8.40;5.00;;;;;;;12.28;84.07;100823.45;115732;1192;58994;-79
2021/10/15 00:46:33;;;;;;;7.30;4.50;;;;;;;12.30;84.05;100815.14;115714;1192;72179;-79
2021/10/15 00:49:05;;;;;;;8.80;5.00;;;;;;;12.30;83.85;100810.19;115511;1192;72879;-79
2021/10/15 00:51:32;;;;;;;8.70;5.60;;;;;;;12.31;83.53;100809.25;115652;1192;60576;-79
2021/10/15 00:54:00;;;;;;;8.10;5.10;;;;;;;12.31;83.55;100802.88;115697;1191;60791;-80
2021/10/15 00:56:31;;;;;;;7.10;4.50;;;;;;;12.31;83.49;100799.64;115774;1192;74738;-79
2021/10/15 00:59:00;;;;;;;8.70;4.80;;;;;;;12.31;83.30;100798.91;115811;1192;71014;-79
2021/10/15 01:01:28;;;;;;;8.30;5.30;;;;;;;12.32;83.19;100792.82;115817;1192;71955;-80
2021/10/15 01:04:00;;;;;;;8.10;4.70;;;;;;;12.31;83.04;100793.23;115803;1191;60194;-80
2021/10/15 01:06:29;;;;;;;12.20;4.50;;;;;;;12.30;83.09;100783.41;115677;1192;61289;-80
2021/10/15 01:08:56;;;;;;;8.80;4.30;;;;;;;12.31;82.86;100782.61;115763;1192;74546;-80
2021/10/15 01:11:23;;;;;;;8.60;4.50;;;;;;;12.30;82.62;100784.89;115736;1192;71395;-80
2021/10/15 01:13:50;;;;;;;6.30;4.40;;;;;;;12.31;82.80;100773.54;115815;1192;72587;-80
2021/10/15 01:16:22;;;;;;;8.50;4.50;;;;;;;12.30;82.77;100770.70;115782;1191;60104;-80
2021/10/15 01:18:48;;;;;;;7.10;3.80;;;;;;;12.29;82.98;100758.49;115793;1192;61404;-80
2021/10/15 01:21:15;;;;;;;9.70;5.20;;;;;;;12.28;83.01;100758.23;115696;1192;75755;-80
2021/10/15 01:23:41;;;;;;;7.80;4.50;;;;;;;12.26;83.04;100759.75;115737;1192;59188;-80
2021/10/15 01:26:08;;;;;;;11.80;5.80;;;;;;;12.26;82.93;100761.42;115698;1192;72948;-80
2021/10/15 01:28:35;;;;;;;10.20;5.10;;;;;;;12.26;83.11;100751.48;115669;1192;62709;-80
2021/10/15 01:31:02;;;;;;;8.50;4.80;;;;;;;12.24;83.16;100753.31;115620;1192;60339;-80
2021/10/15 01:33:29;;;;;;;9.30;5.30;;;;;;;12.21;83.39;100746.66;115766;1192;75684;-80
2021/10/15 01:35:56;;;;;;;8.80;5.50;;;;;;;12.20;83.51;100751.09;115632;1191;70855;-80
2021/10/15 01:38:22;;;;;;;9.30;4.90;;;;;;;12.19;83.33;100747.63;115727;1192;72767;-81
2021/10/15 01:40:49;;;;;;;7.90;4.10;;;;;;;12.18;83.19;100745.27;115676;1192;62141;-80
2021/10/15 01:43:28;;;;;;;9.80;4.30;;;;;;;12.19;83.23;100741.63;115554;1192;61374;-80
2021/10/15 01:45:56;;;;;;;10.60;4.90;;;;;;;12.19;83.58;100730.83;115713;1192;75953;-79
2021/10/15 01:48:23;;;;;;;7.40;5.00;;;;;;;12.17;83.41;100736.04;115681;1192;69793;-80
2021/10/15 01:50:51;;;;;;;8.20;5.20;;;;;;;12.16;83.35;100735.84;115697;1191;72803;-79
2021/10/15 01:53:18;;;;;;;6.40;3.80;;;;;;;12.15;83.29;100725.48;115753;1191;62226;-79
2021/10/15 01:55:45;;;;;;;6.90;4.30;;;;;;;12.15;83.13;100722.29;115724;1191;60365;-79
2021/10/15 01:58:11;;;;;;;5.50;4.10;;;;;;;12.14;82.88;100719.41;115775;1192;75637;-80
2021/10/15 02:00:39;;;;;;;13.40;6.20;;;;;;;12.14;82.87;100716.19;115695;1192;70853;-80
2021/10/15 02:03:06;;;;;;;9.60;5.00;;;;;;;12.14;82.75;100718.71;115774;1192;71747;-80
2021/10/15 02:05:32;;;;;;;10.10;5.30;;;;;;;12.13;82.73;100710.95;115767;1191;60037;-79
2021/10/15 02:07:59;;;;;;;14.70;6.00;;;;;;;12.13;82.65;100708.29;115744;1191;60308;-80
2021/10/15 02:10:26;;;;;;;11.80;5.90;;;;;;;12.15;82.61;100706.50;115735;1191;75831;-80
2021/10/15 02:12:53;;;;;;;14.90;6.40;;;;;;;12.15;82.52;100706.98;115712;1191;71289;-80
2021/10/15 02:15:20;;;;;;;9.90;4.90;;;;;;;12.15;82.79;100705.41;115725;1192;73675;-79
2021/10/15 02:17:46;;;;;;;11.60;6.60;;;;;;;12.13;82.90;100708.73;115740;1191;59056;-79
2021/10/15 02:20:15;;;;;;;12.60;7.00;;;;;;;12.10;82.96;100704.84;115709;1192;59783;-79
2021/10/15 02:22:44;;;;;;;15.60;6.40;;;;;;;12.08;83.01;100699.41;115779;1191;75748;-79
2021/10/15 02:25:13;;;;;;;14.00;6.10;;;;;;;12.05;82.79;100699.36;115716;1192;70980;-79
2021/10/15 02:27:40;;;;;;;9.30;5.00;;;;;;;12.06;82.99;100692.36;115763;1192;73699;-80
2021/10/15 02:30:09;;;;;;;11.60;4.40;;;;;;;12.03;82.93;100693.84;115735;1192;61728;-81
2021/10/15 02:32:36;;;;;;;10.10;4.60;;;;;;;12.02;82.74;100688.38;115708;1191;60906;-81
2021/10/15 02:35:06;;;;;;;8.10;4.70;;;;;;;11.98;83.02;100681.70;115630;1191;75911;-81
2021/10/15 02:37:33;;;;;;;8.70;3.60;;;;;;;11.96;82.94;100682.17;115747;1192;69840;-81
2021/10/15 02:39:59;;;;;;;7.80;5.30;;;;;;;11.95;83.24;100678.48;115607;1192;74154;-81
2021/10/15 02:42:26;;;;;;;7.80;4.90;;;;;;;11.93;83.08;100685.80;115749;1192;59035;-81
2021/10/15 02:44:53;;;;;;;6.60;3.90;;;;;;;11.93;83.42;100679.96;115641;1192;59165;-80
2021/10/15 02:47:19;;;;;;;8.50;3.70;;;;;;;11.91;83.11;100676.41;115718;1192;59516;-80
2021/10/15 02:49:46;;;;;;;5.70;3.90;;;;;;;11.90;83.31;100673.01;115668;1191;72228;-81
2021/10/15 02:52:12;;;;;;;6.50;3.10;;;;;;;11.89;83.11;100669.09;115700;1192;74002;-81
2021/10/15 02:54:39;;;;;;;5.90;4.00;;;;;;;11.87;83.03;100665.16;115746;1191;59909;-80
2021/10/15 02:57:05;;;;;;;9.30;4.00;;;;;;;11.85;83.11;100660.30;115748;1191;59054;-80
2021/10/15 02:59:31;;;;;;;8.30;3.50;;;;;;;11.83;82.97;100658.48;115749;1192;59268;-80
2021/10/15 03:01:58;;;;;;;6.40;3.30;;;;;;;11.83;82.92;100655.66;115724;1191;59834;-80
2021/10/15 03:04:25;;;;;;;9.10;4.10;;;;;;;11.82;82.75;100651.11;115730;1192;71469;-80
2021/10/15 03:06:52;;;;;;;7.70;3.40;;;;;;;11.82;82.82;100649.41;115719;1192;61783;-80
2021/10/15 03:09:18;;;;;;;5.90;3.30;;;;;;;11.80;82.71;100644.55;115762;1191;58994;-80
2021/10/15 03:11:45;;;;;;;6.90;2.90;;;;;;;11.79;82.74;100647.16;115752;1192;59581;-80
2021/10/15 03:14:11;;;;;;;7.40;3.30;;;;;;;11.77;82.54;100637.58;115793;1191;70952;-80
2021/10/15 03:16:38;;;;;;;7.80;3.70;;;;;;;11.77;82.48;100635.12;115695;1191;59093;-80
2021/10/15 03:19:05;;;;;;;6.20;3.50;;;;;;;11.77;82.35;100631.42;115748;1191;58948;-81
2021/10/15 03:21:31;;;;;;;6.50;3.00;;;;;;;11.76;82.46;100623.20;115863;1191;61707;-81
2021/10/15 03:23:58;;;;;;;7.60;3.50;;;;;;;11.75;82.27;100615.91;115815;1191;75675;-81
2021/10/15 03:26:24;;;;;;;9.90;3.70;;;;;;;11.73;82.12;100614.57;115765;1191;59455;-81
2021/10/15 03:28:51;;;;;;;6.00;4.00;;;;;;;11.73;82.24;100619.68;115760;1191;58984;-81
2021/10/15 03:31:17;;;;;;;9.30;4.10;;;;;;;11.73;82.14;100616.52;115677;1191;59611;-80
2021/10/15 03:33:44;;;;;;;6.30;3.20;;;;;;;11.72;82.15;100622.61;115844;1192;59060;-81
2021/10/15 03:36:11;;;;;;;9.80;3.50;;;;;;;11.72;82.07;100623.88;115731;1192;75153;-81
2021/10/15 03:38:37;;;;;;;13.00;4.40;;;;;;;11.72;81.92;100618.06;115872;1192;59370;-81
2021/10/15 03:41:04;;;;;;;9.50;4.00;;;;;;;11.72;82.03;100615.08;115754;1191;59066;-80
2021/10/15 03:43:30;;;;;;;4.40;2.80;;;;;;;11.72;82.22;100611.98;115802;1192;60191;-80
2021/10/15 03:45:57;;;;;;;7.90;4.00;;;;;;;11.73;82.05;100610.72;115744;1191;58971;-80
2021/10/15 03:48:23;;;;;;;5.00;2.60;;;;;;;11.73;81.84;100611.75;115811;1192;59832;-80
2021/10/15 03:50:50;;;;;;;5.60;3.00;;;;;;;11.73;81.78;100613.50;115816;1191;59201;-81
2021/10/15 03:53:16;;;;;;;11.50;5.60;;;;;;;11.73;81.89;100612.65;115844;1191;58979;-80
2021/10/15 03:55:43;;;;;;;9.10;4.20;;;;;;;11.71;81.79;100610.54;115657;1192;59171;-80
2021/10/15 03:58:09;;;;;;;7.20;3.70;;;;;;;11.73;81.89;100603.79;115767;1191;59217;-80
2021/10/15 04:00:36;;;;;;;6.10;3.40;;;;;;;11.73;81.63;100601.61;115698;1191;74539;-80
2021/10/15 04:03:03;;;;;;;6.90;3.70;;;;;;;11.73;81.86;100595.42;115828;1191;71002;-80
2021/10/15 04:05:30;;;;;;;8.40;3.60;;;;;;;11.73;81.71;100598.13;115683;1192;74685;-80
2021/10/15 04:07:56;;;;;;;9.10;3.90;;;;;;;11.73;81.62;100596.52;115297;1192;60982;-80
2021/10/15 04:10:23;;;;;;;6.90;4.00;;;;;;;11.72;81.60;100594.11;115014;1192;59090;-79
2021/10/15 04:12:49;;;;;;;13.80;3.80;;;;;;;11.72;81.53;100586.30;115143;1192;75567;-79
2021/10/15 04:15:16;;;;;;;9.20;3.90;;;;;;;11.72;80.90;100585.81;114835;1191;61065;-79
2021/10/15 04:17:42;;;;;;;9.80;3.50;;;;;;;11.73;81.05;100583.02;115014;1191;61020;-79
2021/10/15 04:20:10;;;;;;;5.20;2.80;;;;;;;11.71;80.89;100577.78;115413;1192;60460;-79
2021/10/15 04:22:36;;;;;;;7.10;4.00;;;;;;;11.70;80.56;100575.11;115519;1191;61211;-79
2021/10/15 04:25:04;;;;;;;6.10;3.50;;;;;;;11.71;80.60;100569.69;115471;1192;75914;-79
2021/10/15 04:27:32;;;;;;;6.30;3.50;;;;;;;11.71;80.42;100563.08;115488;1191;71025;-79
2021/10/15 04:29:59;;;;;;;4.80;3.10;;;;;;;11.70;80.08;100562.81;115537;1191;72594;-80
2021/10/15 04:32:25;;;;;;;4.50;2.70;;;;;;;11.70;79.98;100548.70;115664;1192;60299;-80
2021/10/15 04:34:52;;;;;;;7.80;3.70;;;;;;;11.69;80.06;100538.39;115560;1192;61685;-79
2021/10/15 04:37:18;;;;;;;7.00;3.30;;;;;;;11.69;79.87;100540.84;115671;1192;74613;-79
2021/10/15 04:39:45;;;;;;;9.40;3.60;;;;;;;11.69;80.10;100530.67;115651;1192;71172;-80
2021/10/15 04:42:12;;;;;;;8.10;4.70;;;;;;;11.69;79.70;100528.98;115612;1192;73830;-83
2021/10/15 04:44:38;;;;;;;12.70;3.40;;;;;;;11.68;79.66;100525.91;115645;1191;59116;-80
2021/10/15 04:47:05;;;;;;;6.80;3.50;;;;;;;11.67;79.49;100519.64;115685;1192;59755;-80
2021/10/15 04:49:31;;;;;;;7.30;3.40;;;;;;;11.66;79.25;100518.32;115730;1191;59522;-81
2021/10/15 04:51:58;;;;;;;3.20;1.40;;;;;;;11.66;79.06;100518.52;115778;1192;58995;-80
2021/10/15 04:54:24;;;;;;;6.60;2.80;;;;;;;11.65;78.95;100508.71;115805;1191;59603;-80
2021/10/15 04:56:51;;;;;;;6.70;3.10;;;;;;;11.63;78.93;100505.86;115805;1191;61326;-80
2021/10/15 04:59:17;;;;;;;4.90;2.40;;;;;;;11.62;79.13;100499.55;115678;1191;61261;-80
2021/10/15 05:01:44;;;;;;;6.80;3.00;;;;;;;11.61;79.16;100495.05;115792;1191;59176;-80
2021/10/15 05:04:13;;;;;;;5.00;2.30;;;;;;;11.60;79.22;100484.30;115700;1192;71943;-80
2021/10/15 05:06:42;;;;;;;4.60;2.40;;;;;;;11.58;79.21;100486.30;115697;1191;72726;-80
2021/10/15 05:11:43;;;;;;;6.20;2.40;;;;;;;11.56;79.19;100485.14;115663;1191;60003;-80
2021/10/15 05:14:10;;;;;;;6.00;2.70;;;;;;;11.57;79.09;100482.61;115766;1192;74362;-80
2021/10/15 05:16:37;;;;;;;5.60;2.80;;;;;;;11.56;78.86;100477.05;115790;1191;71011;-80
2021/10/15 05:19:04;;;;;;;7.30;2.90;;;;;;;11.57;78.86;100478.20;115735;1191;73312;-80
2021/10/15 05:21:30;;;;;;;4.50;2.50;;;;;;;11.56;78.65;100469.48;115792;1191;59135;-80
2021/10/15 05:23:57;;;;;;;4.80;2.40;;;;;;;11.54;78.59;100468.71;115809;1192;59273;-80
2021/10/15 05:26:24;;;;;;;6.00;2.60;;;;;;;11.53;78.54;100461.08;115749;1191;58975;-80
2021/10/15 05:28:50;;;;;;;4.70;2.50;;;;;;;11.53;78.54;100455.30;115692;1192;71344;-72
2021/10/15 05:31:17;;;;;;;4.90;2.50;;;;;;;11.52;78.68;100452.95;115618;1192;58983;-72
2021/10/15 05:33:43;;;;;;;4.90;2.70;;;;;;;11.51;78.30;100449.45;115606;1191;60865;-72
2021/10/15 05:36:10;;;;;;;5.70;2.80;;;;;;;11.50;78.40;100441.48;115656;1192;59062;-71
2021/10/15 05:38:36;;;;;;;8.90;3.00;;;;;;;11.48;78.45;100435.85;115560;1192;59010;-71
2021/10/15 05:41:03;;;;;;;5.50;2.60;;;;;;;11.47;78.51;100434.77;115679;1192;59034;-72
2021/10/15 05:43:29;;;;;;;13.10;3.20;;;;;;;11.46;78.56;100433.34;115678;1192;59527;-72
2021/10/15 05:45:56;;;;;;;4.90;2.70;;;;;;;11.43;78.50;100433.13;115715;1192;59013;-71
2021/10/15 05:48:24;;;;;;;5.60;3.30;;;;;;;11.41;78.65;100434.02;115729;1192;60244;-71
2021/10/15 05:50:51;;;;;;;4.20;2.70;;;;;;;11.38;78.82;100429.23;115749;1192;75861;-72
2021/10/15 05:53:19;;;;;;;5.90;2.50;;;;;;;11.37;78.77;100422.48;115731;1192;71033;-70
2021/10/15 05:56:16;;;;;;;5.20;2.20;;;;;;;11.36;78.90;100419.41;115714;1192;73805;-72
2021/10/15 05:58:50;;;;;;;3.30;2.20;;;;;;;11.36;78.85;100416.83;115763;1192;61361;-71
2021/10/15 06:01:22;;;;;;;5.80;2.70;;;;;;;11.34;78.95;100412.44;115697;1192;61307;-70
2021/10/15 06:14:20;;;;;;;7.60;3.10;;;;;;;11.29;79.57;100415.45;115819;1191;61776;-71
2021/10/15 06:16:50;;;;;;;7.90;2.80;;;;;;;11.29;79.76;100412.83;115721;1192;74580;-72
2021/10/15 06:19:20;;;;;;;8.40;3.30;;;;;;;11.31;79.78;100410.52;115809;1191;69847;-71
2021/10/15 06:21:47;;;;;;;8.40;3.50;;;;;;;11.32;79.91;100410.30;115693;1191;71100;-71
2021/10/15 06:24:14;;;;;;;11.00;4.20;;;;;;;11.34;79.53;100414.39;115680;1192;62615;-72
2021/10/15 06:26:41;;;;;;;8.70;4.20;;;;;;;11.36;79.66;100413.04;115736;1192;60653;-72
2021/10/15 06:29:07;;;;;;;8.70;3.80;;;;;;;11.38;79.75;100411.59;115680;1192;75590;-72
2021/10/15 06:31:38;;;;;;;7.20;3.60;;;;;;;11.39;79.75;100406.61;115740;1192;70997;-72
2021/10/15 06:34:05;;;;;;;9.50;3.90;;;;;;;11.41;79.55;100398.58;115763;1191;72521;-71
2021/10/15 06:36:33;;;;;;;7.20;3.50;;;;;;;11.44;79.50;100396.13;115740;1192;59063;-71
2021/10/15 06:38:59;;;;;;;9.10;4.00;;;;;;;11.47;79.27;100397.78;115738;1191;60406;-71
2021/10/15 06:41:26;;;;;;;8.70;5.10;;;;;;;11.48;79.44;100401.92;115728;1192;74744;-71
2021/10/15 06:43:52;;;;;;;11.90;5.70;;;;;;;11.51;79.32;100400.32;115725;1191;58936;-71
2021/10/15 06:46:21;;;;;;;13.00;4.20;;;;;;;11.53;79.55;100405.53;115726;1191;58925;-71
2021/10/15 06:48:48;;;;;;;7.40;3.70;;;;;;;11.55;79.61;100409.81;115677;1192;62131;-71
2021/10/15 06:51:14;;;;;;;12.70;4.90;;;;;;;11.57;79.33;100406.20;115762;1192;60332;-71
2021/10/15 06:53:41;;;;;;;9.60;3.70;;;;;;;11.60;79.19;100412.11;115461;1192;74714;-71
2021/10/15 06:56:07;;;;;;;8.00;3.70;;;;;;;11.60;79.17;100411.88;115775;1191;70982;-71
2021/10/15 06:58:34;;;;;;;12.50;4.70;;;;;;;11.61;79.07;100418.65;115452;1192;72536;-71
2021/10/15 07:01:01;;;;;;;6.50;2.90;;;;;;;11.62;79.08;100420.64;115793;1192;62015;-71
2021/10/15 07:03:29;;;;;;;8.70;3.60;;;;;;;11.65;79.12;100418.77;115706;1192;60040;-72
2021/10/15 07:05:55;;;;;;;6.00;3.10;;;;;;;11.66;79.11;100429.38;115709;1192;75639;-72
2021/10/15 07:08:27;;;;;;;5.40;2.70;;;;;;;11.68;78.78;100428.42;115702;1191;69802;-71
2021/10/15 07:10:54;;;;;;;10.00;3.50;;;;;;;11.70;78.65;100430.69;115648;1192;72737;-71
2021/10/15 07:13:20;;;;;;;9.80;3.10;;;;;;;11.74;78.73;100421.01;115691;1192;62909;-71
2021/10/15 07:15:49;;;;;;;6.20;4.00;;;;;;;11.78;78.44;100417.48;115778;1191;61807;-71
2021/10/15 07:18:16;;;;;;;11.30;3.60;;;;;;;11.80;78.73;100422.00;115695;1191;74643;-71
2021/10/15 07:20:44;;;;;;;4.60;2.90;;;;;;;11.82;78.58;100420.80;115771;1191;71006;-72
2021/10/15 07:23:13;;;;;;;7.00;2.90;;;;;;;11.87;78.48;100413.06;115706;1191;72481;-72
2021/10/15 07:25:43;;;;;;;7.70;3.70;;;;;;;11.91;78.58;100418.78;115688;1191;61662;-72
2021/10/15 07:28:14;;;;;;;6.30;3.20;;;;;;;11.95;78.37;100420.56;115702;1191;60622;-72
2021/10/15 07:30:41;;;;;;;6.80;3.90;;;;;;;11.96;78.03;100418.98;115687;1191;74728;-71
2021/10/15 07:33:07;;;;;;;8.40;4.40;;;;;;;11.98;78.38;100420.89;115751;1191;71166;-71
2021/10/15 07:35:34;;;;;;;6.90;3.90;;;;;;;11.99;78.37;100424.70;115751;1192;71927;-71
2021/10/15 07:38:01;;;;;;;8.10;3.70;;;;;;;11.98;78.39;100425.02;115658;1191;61907;-71
2021/10/15 07:40:28;;;;;;;6.90;3.40;;;;;;;11.97;78.26;100420.30;115721;1191;60215;-71
2021/10/15 07:42:54;;;;;;;9.90;5.50;;;;;;;11.98;78.51;100417.20;115751;1192;59463;-72
2021/10/15 07:45:21;;;;;;;8.40;4.40;;;;;;;11.98;78.37;100417.63;115691;1192;59055;-73
2021/10/15 07:47:58;;;;;;;8.60;4.60;;;;;;;12.00;78.82;100409.98;115726;1192;72349;-72
2021/10/15 07:50:25;;;;;;;7.70;3.30;;;;;;;12.03;78.67;100409.32;115655;1192;62243;-72
2021/10/15 07:52:52;;;;;;;6.80;2.50;;;;;;;12.04;78.37;100408.46;115759;1192;61002;-72
2021/10/15 07:55:19;;;;;;;8.00;3.60;;;;;;;12.07;78.55;100403.67;115647;1192;74341;-72
2021/10/15 07:57:45;;;;;;;10.20;4.40;;;;;;;12.11;78.74;100408.41;115732;1191;72098;-71
2021/10/15 08:00:12;;;;;;;11.80;4.50;;;;;;;12.16;78.54;100411.39;115679;1192;73724;-72
2021/10/15 08:02:39;;;;;;;11.90;6.20;;;;;;;12.16;78.36;100410.81;115687;1192;60195;-72
2021/10/15 08:05:06;;;;;;;6.70;3.90;;;;;;;12.17;78.51;100415.58;115735;1192;60102;-72
2021/10/15 08:07:33;;;;;;;8.70;3.60;;;;;;;12.16;78.61;100409.59;115788;1192;75375;-71
2021/10/15 08:10:00;;;;;;;10.00;4.90;;;;;;;12.14;78.47;100426.38;115784;1192;72230;-72
2021/10/15 08:12:26;;;;;;;11.10;4.80;;;;;;;12.13;78.77;100420.64;115767;1191;59042;-72
2021/10/15 08:14:53;;;;;;;8.60;4.50;;;;;;;12.12;78.97;100419.36;115680;1192;59022;-72
2021/10/15 08:17:20;;;;;;;6.10;3.90;;;;;;;12.09;79.12;100431.28;115703;1192;61413;-71
2021/10/15 08:19:46;;;;;;;10.40;4.40;;;;;;;12.07;79.50;100426.05;115636;1192;74490;-71
2021/10/15 08:22:13;;;;;;;5.30;3.10;;;;;;;12.05;79.47;100436.38;115625;1192;59052;-71
2021/10/15 08:24:40;;;;;;;5.80;3.20;;;;;;;12.04;79.61;100437.34;115734;1192;58987;-71
2021/10/15 08:27:06;;;;;;;8.60;3.50;;;;;;;12.06;79.90;100444.44;115713;1191;62075;-71
2021/10/15 08:29:38;;;;;;;10.30;3.60;;;;;;;12.06;80.35;100445.75;115620;1191;59068;-71
2021/10/15 08:32:05;;;;;;;9.50;4.70;;;;;;;12.06;80.92;100454.08;115783;1192;76215;-72
2021/10/15 08:34:32;;;;;;;4.60;2.50;;;;;;;12.00;82.74;100459.77;115700;1191;71075;-73
2021/10/15 08:36:58;;;;;;;6.10;3.30;;;;;;;11.88;84.34;100468.34;115646;1192;71844;-72
2021/10/15 08:39:28;;;;;;;6.90;4.50;;;;;;;11.67;86.75;100475.30;115637;1192;59844;-71
2021/10/15 08:41:57;;;;;;;7.00;4.40;;;;;;;11.46;88.94;100488.83;115664;1186;60932;-71
2021/10/15 08:44:42;;;;;;;7.70;3.60;;;;;;;11.25;90.87;100481.77;115734;1192;74658;-71
2021/10/15 08:47:12;;;;;;;8.40;3.60;;;;;;;11.05;93.15;100480.56;115784;1192;70953;-72
2021/10/15 08:49:59;;;;;;;9.30;4.00;;;;;;;10.90;94.55;100487.30;115656;1192;73006;-71
2021/10/15 08:52:25;;;;;;;11.90;5.50;;;;;;;10.81;95.32;100489.87;115786;1192;61407;-72
2021/10/15 08:54:53;;;;;;;9.70;5.00;;;;;;;10.73;96.34;100498.08;115794;1191;59092;-72
2021/10/15 08:57:20;;;;;;;10.50;6.00;;;;;;;10.67;96.98;100507.00;115822;1191;74719;-72
2021/10/15 08:59:50;;;;;;;11.60;5.70;;;;;;;10.64;97.65;100508.58;115626;1192;59167;-71
2021/10/15 09:02:19;;;;;;;6.60;3.90;;;;;;;10.62;98.43;100510.68;115743;1191;74889;-72
2021/10/15 09:05:04;;;;;;;10.50;4.70;;;;;;;10.57;99.43;100534.11;115823;1191;61626;-72
2021/10/15 09:07:31;;;;;;;12.60;6.20;;;;;;;10.49;99.88;100551.23;115700;1191;60805;-71
2021/10/15 09:10:14;;;;;;;16.50;10.80;;;;;;;10.42;99.88;100563.66;115765;1191;59081;-72
2021/10/15 09:12:47;;;;;;;10.50;4.00;;;;;;;10.25;99.95;100586.85;115707;1192;73163;-72
2021/10/15 09:15:16;;;;;;;4.30;2.90;;;;;;;10.05;99.27;100577.48;115811;1192;72773;-72
2021/10/15 09:17:52;;;;;;;13.20;4.90;;;;;;;9.92;99.70;100588.87;115666;1192;62745;-72
2021/10/15 09:20:31;;;;;;;10.90;3.00;;;;;;;9.86;99.94;100595.23;115669;1192;60948;-72
2021/10/15 09:23:12;;;;;;;7.80;3.00;;;;;;;9.84;100.00;100605.30;115680;1192;74909;-72
2021/10/15 09:25:42;;;;;;;7.10;3.20;;;;;;;9.86;100.00;100607.43;115724;1192;71182;-72
2021/10/15 09:28:18;;;;;;;6.00;2.60;;;;;;;9.90;100.00;100606.21;115685;1192;71644;-72
2021/10/15 09:30:48;;;;;;;13.50;3.70;;;;;;;9.93;99.97;100603.98;115657;1192;61596;-73
2021/10/15 09:33:18;;;;;;;10.10;3.70;;;;;;;9.96;99.98;100604.09;115618;1192;61577;-73
2021/10/15 09:35:45;;;;;;;20.50;4.60;;;;;;;10.01;99.94;100605.73;115702;1192;74585;-73
2021/10/15 09:38:12;;;;;;;16.30;5.10;;;;;;;10.03;100.00;100614.48;115755;1192;70896;-73
2021/10/15 09:40:42;;;;;;;6.50;3.10;;;;;;;10.03;100.00;100611.09;115720;1192;72718;-72
2021/10/15 09:43:11;;;;;;;14.00;4.60;;;;;;;10.02;99.82;100616.75;115750;1191;61062;-73
2021/10/15 09:45:41;;;;;;;10.40;3.50;;;;;;;10.02;99.77;100625.21;115716;1191;61179;-73
2021/10/15 09:48:20;;;;;;;11.00;2.60;;;;;;;10.04;99.90;100623.88;115759;1191;75009;-73
2021/10/15 09:51:12;;;;;;;19.40;4.80;;;;;;;10.06;99.01;100631.69;115774;1192;71376;-73
2021/10/15 09:53:40;;;;;;;11.10;3.10;;;;;;;10.11;99.50;100638.88;115776;1191;71725;-72
2021/10/15 09:56:07;;;;;;;23.80;4.20;;;;;;;10.15;99.42;100638.88;115735;1192;61920;-72
2021/10/15 09:58:34;;;;;;;15.80;3.50;;;;;;;10.20;99.49;100645.95;115837;1191;59306;-72
2021/10/15 10:01:01;;;;;;;8.10;2.60;;;;;;;10.27;98.97;100655.30;115801;1192;75872;-72
2021/10/15 10:03:28;;;;;;;7.20;2.30;;;;;;;10.32;98.63;100660.17;115876;1192;71845;-72
2021/10/15 10:05:54;;;;;;;4.80;2.60;;;;;;;10.32;98.28;100655.64;115703;1192;59204;-72
2021/10/15 10:08:23;;;;;;;8.80;2.30;;;;;;;10.32;97.85;100668.94;115819;1192;61604;-72
2021/10/15 10:10:50;;;;;;;5.20;2.80;;;;;;;10.28;97.56;100671.10;115684;1192;60114;-72
2021/10/15 10:13:16;;;;;;;20.30;4.10;;;;;;;10.25;98.23;100671.45;115841;1192;59171;-72
2021/10/15 10:15:45;;;;;;;2.40;1.30;;;;;;;10.20;98.49;100671.03;115761;1192;72107;-72
2021/10/15 10:18:18;;;;;;;8.70;3.00;;;;;;;10.14;98.18;100678.13;115777;1192;72404;-72
2021/10/15 10:20:48;;;;;;;5.80;2.80;;;;;;;10.08;98.77;100676.62;115704;1192;61677;-73
2021/10/15 10:23:37;;;;;;;3.90;1.30;;;;;;;10.03;98.87;100682.55;115707;1192;61280;-73
2021/10/15 10:26:08;;;;;;;1.90;0.90;;;;;;;9.95;98.55;100683.89;115754;1192;74617;-73
2021/10/15 10:28:35;;;;;;;2.70;1.40;;;;;;;9.90;98.76;100677.58;115754;1192;72361;-73
2021/10/15 10:31:05;;;;;;;1.60;0.70;;;;;;;9.86;99.03;100685.29;115597;1192;73664;-71
2021/10/15 10:33:53;;;;;;;3.90;1.20;;;;;;;9.82;98.74;100697.95;115572;1192;62198;-71
2021/10/15 10:36:20;;;;;;;2.30;0.80;;;;;;;9.80;99.00;100700.08;115721;1192;60637;-72
2021/10/15 10:38:47;;;;;;;2.80;0.90;;;;;;;9.77;98.63;100675.64;115716;1192;75947;-71
2021/10/15 10:41:19;;;;;;;0.30;0.10;;;;;;;9.76;98.34;100714.48;115709;1192;70973;-71
2021/10/15 10:43:46;;;;;;;6.60;1.00;;;;;;;9.72;98.56;100726.36;115662;1192;72656;-72
2021/10/15 10:46:24;;;;;;;0.80;0.30;;;;;;;9.68;98.44;100716.23;115759;1192;61876;-72
2021/10/15 10:48:50;;;;;;;2.70;0.90;;;;;;;9.65;98.24;100732.29;115681;1192;61315;-72
2021/10/15 10:51:29;;;;;;;2.40;0.90;;;;;;;9.64;98.26;100735.17;115763;1192;58793;-71
2021/10/15 10:54:08;;;;;;;1.30;0.50;;;;;;;9.66;98.62;100744.86;115776;1192;72761;-72
2021/10/15 10:56:48;;;;;;;1.30;0.60;;;;;;;9.69;98.79;100734.96;115847;1192;72791;-71
2021/10/15 10:59:18;;;;;;;6.60;1.20;;;;;;;9.75;98.51;100741.41;115713;1191;62668;-71
2021/10/15 11:01:49;;;;;;;1.70;0.60;;;;;;;9.83;98.30;100760.50;115860;1192;61397;-72
2021/10/15 11:04:28;;;;;;;1.40;0.80;;;;;;;9.88;97.70;100763.84;115776;1191;77028;-72
2021/10/15 11:07:09;;;;;;;1.50;0.90;;;;;;;9.95;97.65;100775.98;115589;1192;72183;-71
2021/10/15 11:09:39;;;;;;;6.00;1.30;;;;;;;10.02;97.12;100773.09;115758;1192;72667;-71
2021/10/15 11:12:08;;;;;;;3.60;1.70;;;;;;;10.01;96.56;100775.61;115794;1192;63137;-71
2021/10/15 11:14:56;;;;;;;5.30;1.80;;;;;;;10.02;96.61;100775.34;115749;1192;60914;-71
2021/10/15 11:17:47;;;;;;;1.90;1.00;;;;;;;10.09;97.18;100779.33;115815;1191;74938;-71
2021/10/15 11:20:39;;;;;;;4.30;1.00;;;;;;;10.22;96.52;100785.89;115764;1192;72002;-71
2021/10/15 11:23:08;;;;;;;11.60;1.80;;;;;;;10.48;95.81;100792.88;115782;1192;72133;-71
2021/10/15 11:25:48;;;;;;;2.60;0.90;;;;;;;10.70;95.06;100788.52;115804;1192;61665;-71
2021/10/15 11:28:18;;;;;;;3.50;1.00;;;;;;;10.96;93.82;100805.42;115824;1192;59328;-71
2021/10/15 11:30:52;;;;;;;2.60;1.10;;;;;;;11.23;92.54;100812.77;115728;1192;74798;-71
2021/10/15 11:33:25;;;;;;;9.30;2.60;;;;;;;11.44;91.21;100817.48;114592;1193;72060;-73
2021/10/15 11:35:53;;;;;;;4.10;1.60;;;;;;;11.52;91.10;100819.94;115882;1192;73477;-71
2021/10/15 11:38:27;;;;;;;5.80;1.30;;;;;;;11.45;89.56;100819.09;115821;1192;61584;-71